Time;durP1;ratioP1;P1;durP2;ratioP2;P2;SDS_P1;SDS_P2;PMS_P1;PMS_P2;Temp;Humidity;BMP_temperature;BMP_pressure;BME280_temperature;BME280_humidity;BME280_pressure;Samples;Min_cycle;Max_cycle;Signal;HPM_P1;HPM_P2
2022/08/23 00:02:03;;;;;;;3.70;3.37;;;15.30;99.90;;;;;;5029927;28;20525;-50
2022/08/23 00:04:33;;;;;;;7.60;3.40;;;15.10;99.90;;;;;;5030105;28;20887;-51
2022/08/23 00:07:01;;;;;;;3.97;3.63;;;14.90;99.90;;;;;;5030225;28;20455;-51
2022/08/23 00:09:29;;;;;;;3.43;3.00;;;15.30;99.90;;;;;;5028467;28;20474;-51
2022/08/23 00:12:05;;;;;;;3.43;3.13;;;15.30;99.90;;;;;;5030459;28;20458;-49
2022/08/23 00:14:35;;;;;;;4.00;3.47;;;15.20;99.90;;;;;;5029859;28;20540;-48
2022/08/23 00:17:03;;;;;;;3.07;2.50;;;15.20;99.90;;;;;;5030043;28;20524;-50
2022/08/23 00:19:32;;;;;;;3.57;2.80;;;15.10;99.90;;;;;;5029327;28;20489;-48
2022/08/23 00:21:59;;;;;;;3.60;3.20;;;15.20;99.90;;;;;;5029736;28;20774;-51
2022/08/23 00:24:26;;;;;;;4.13;2.67;;;15.40;99.90;;;;;;5029940;28;20482;-49
2022/08/23 00:26:59;;;;;;;2.92;2.65;;;15.60;99.90;;;;;;5028348;28;20458;-49
2022/08/23 00:29:31;;;;;;;3.30;3.00;;;15.60;99.90;;;;;;5029190;28;20602;-48
2022/08/23 00:31:59;;;;;;;3.03;2.80;;;15.50;99.90;;;;;;5029672;28;20430;-51
2022/08/23 00:34:27;;;;;;;3.88;3.47;;;15.60;99.90;;;;;;5029589;28;20457;-50
2022/08/23 00:36:56;;;;;;;3.70;3.30;;;15.50;99.90;;;;;;5029771;28;20200;-49
2022/08/23 00:39:23;;;;;;;3.80;3.20;;;15.40;99.90;;;;;;5029242;28;20869;-50
2022/08/23 00:41:51;;;;;;;3.60;2.63;;;15.40;99.90;;;;;;5030189;28;20931;-49
2022/08/23 00:50:02;;;;;;;3.10;2.80;;;15.60;99.90;;;;;;5028950;28;20418;-49
2022/08/23 00:52:37;;;;;;;4.23;3.50;;;15.90;99.90;;;;;;5029695;28;20450;-49
2022/08/23 00:55:05;;;;;;;6.83;3.27;;;15.60;99.90;;;;;;5029445;28;20457;-53
2022/08/23 00:57:35;;;;;;;4.43;3.47;;;15.30;99.90;;;;;;5029759;28;20446;-49
2022/08/23 01:00:05;;;;;;;4.00;3.67;;;15.50;99.90;;;;;;5028832;28;21037;-50
2022/08/23 01:02:32;;;;;;;3.05;2.63;;;15.50;99.90;;;;;;5028070;28;20202;-49
2022/08/23 01:05:01;;;;;;;5.10;3.00;;;15.50;99.90;;;;;;5029528;28;20643;-50
2022/08/23 01:07:46;;;;;;;4.20;3.90;;;15.60;99.90;;;;;;5032889;28;20525;-49
2022/08/23 01:10:21;;;;;;;4.50;3.37;;;15.70;99.90;;;;;;5032736;28;20238;-48
2022/08/23 01:12:54;;;;;;;3.67;3.37;;;15.90;99.90;;;;;;5033376;28;20862;-49
2022/08/23 01:15:25;;;;;;;3.73;3.43;;;15.70;99.90;;;;;;5033381;28;20909;-49
2022/08/23 01:17:56;;;;;;;4.20;3.70;;;15.50;99.90;;;;;;5033154;28;20437;-48
2022/08/23 01:20:25;;;;;;;4.93;2.77;;;15.60;99.90;;;;;;5032751;28;20458;-49
2022/08/23 01:22:58;;;;;;;4.23;3.00;;;15.50;99.90;;;;;;5033181;28;20477;-49
2022/08/23 01:25:30;;;;;;;3.67;3.17;;;15.60;99.90;;;;;;5033209;28;20492;-50
2022/08/23 01:27:58;;;;;;;3.63;3.10;;;15.50;99.90;;;;;;5031529;28;20457;-50
2022/08/23 01:30:29;;;;;;;3.60;3.30;;;15.50;99.90;;;;;;5032395;28;20460;-52
2022/08/23 01:32:59;;;;;;;4.63;3.63;;;15.60;99.90;;;;;;5032727;28;20672;-48
2022/08/23 01:35:33;;;;;;;5.70;3.43;;;15.70;99.90;;;;;;5032878;28;20434;-50
2022/08/23 01:38:01;;;;;;;3.70;3.40;;;15.70;99.90;;;;;;5033035;28;20449;-49
2022/08/23 01:40:31;;;;;;;4.50;3.90;;;15.90;99.90;;;;;;5032585;28;20477;-49
2022/08/23 01:42:58;;;;;;;4.18;3.78;;;15.60;99.90;;;;;;5032551;28;20477;-49
2022/08/23 01:45:26;;;;;;;3.83;3.40;;;15.00;99.90;;;;;;5032781;28;20210;-49
2022/08/23 01:47:53;;;;;;;4.10;3.50;;;15.10;99.90;;;;;;5032669;28;20434;-50
2022/08/23 01:50:20;;;;;;;3.97;3.67;;;15.20;99.90;;;;;;5032003;28;20989;-49
2022/08/23 01:52:47;;;;;;;4.45;4.13;;;15.30;99.90;;;;;;5032411;28;20473;-50
2022/08/23 01:55:15;;;;;;;5.47;4.10;;;15.40;99.90;;;;;;5032497;28;20223;-52
2022/08/23 01:57:45;;;;;;;3.70;3.40;;;15.50;99.90;;;;;;5032563;28;20951;-49
2022/08/23 02:00:13;;;;;;;4.40;3.73;;;15.70;99.90;;;;;;5031749;28;20433;-50
2022/08/23 02:02:40;;;;;;;4.90;3.53;;;15.60;99.90;;;;;;5031276;28;20469;-49
2022/08/23 02:05:09;;;;;;;4.30;3.83;;;15.50;99.90;;;;;;5032262;28;20485;-49
2022/08/23 02:07:36;;;;;;;3.70;3.40;;;15.40;99.90;;;;;;5031898;28;20451;-49
2022/08/23 02:10:03;;;;;;;4.30;3.10;;;15.40;99.90;;;;;;5031550;28;20430;-48
2022/08/23 02:12:30;;;;;;;3.37;3.07;;;15.70;99.90;;;;;;5032266;28;20477;-49
2022/08/23 02:14:59;;;;;;;4.10;3.27;;;15.90;99.90;;;;;;5032037;28;20473;-50
2022/08/23 02:17:26;;;;;;;3.30;2.87;;;16.00;99.90;;;;;;5031195;28;20457;-51
2022/08/23 02:19:54;;;;;;;3.97;3.27;;;16.20;99.90;;;;;;5031367;28;20457;-49
2022/08/23 02:22:22;;;;;;;4.23;3.20;;;16.00;99.90;;;;;;5031783;28;20819;-49
2022/08/23 02:24:49;;;;;;;3.77;3.20;;;15.60;99.90;;;;;;5031689;28;20478;-50
2022/08/23 02:27:17;;;;;;;3.33;3.03;;;15.60;99.90;;;;;;5030329;28;20450;-51
2022/08/23 02:29:46;;;;;;;3.97;3.67;;;15.60;99.90;;;;;;5031241;28;21021;-48
2022/08/23 02:32:17;;;;;;;3.93;3.53;;;15.60;99.90;;;;;;5031864;28;20458;-49
2022/08/23 02:34:46;;;;;;;4.30;3.47;;;15.40;99.90;;;;;;5031907;28;20997;-49
2022/08/23 02:37:14;;;;;;;4.70;3.27;;;15.40;99.90;;;;;;5031857;28;20450;-51
2022/08/23 02:39:42;;;;;;;4.13;3.80;;;15.40;99.90;;;;;;5031123;28;20422;-50
2022/08/23 02:42:10;;;;;;;3.80;3.10;;;15.50;99.90;;;;;;5031707;28;20584;-51
2022/08/23 02:44:37;;;;;;;3.70;3.40;;;15.50;99.90;;;;;;5031306;28;20506;-49
2022/08/23 02:47:07;;;;;;;3.57;3.27;;;15.60;99.90;;;;;;5031770;28;20924;-48
2022/08/23 02:49:36;;;;;;;4.07;3.30;;;15.40;99.90;;;;;;5030810;28;20496;-49
2022/08/23 02:52:05;;;;;;;3.33;3.03;;;15.30;99.90;;;;;;5031517;28;20447;-49
2022/08/23 02:54:32;;;;;;;3.77;3.40;;;15.20;99.90;;;;;;5031271;28;20976;-49
2022/08/23 02:56:59;;;;;;;3.80;3.50;;;15.40;99.90;;;;;;5031369;28;20967;-50
2022/08/23 02:59:26;;;;;;;3.77;3.47;;;15.60;99.90;;;;;;5030588;28;20447;-49
2022/08/23 03:01:53;;;;;;;5.07;3.80;;;15.60;99.90;;;;;;5031250;28;20537;-50
2022/08/23 03:04:20;;;;;;;3.40;3.10;;;15.60;99.90;;;;;;5031108;28;20478;-52
2022/08/23 03:06:49;;;;;;;4.00;3.60;;;15.50;99.90;;;;;;5031272;28;20508;-49
2022/08/23 03:09:16;;;;;;;4.15;3.28;;;15.40;99.90;;;;;;5029920;28;20486;-49
2022/08/23 03:11:45;;;;;;;3.63;3.33;;;15.60;99.90;;;;;;5031054;28;20203;-52
2022/08/23 03:14:12;;;;;;;4.47;3.53;;;15.70;99.90;;;;;;5030757;28;20470;-49
2022/08/23 03:16:39;;;;;;;3.20;2.90;;;15.50;99.90;;;;;;5031059;28;20441;-53
2022/08/23 03:19:06;;;;;;;3.30;3.00;;;15.70;99.90;;;;;;5030756;28;20223;-49
2022/08/23 03:21:33;;;;;;;4.70;3.17;;;15.60;99.90;;;;;;5030953;28;20928;-50
2022/08/23 03:24:03;;;;;;;3.00;2.70;;;15.80;99.90;;;;;;5030632;28;20485;-49
2022/08/23 03:26:30;;;;;;;4.22;3.83;;;15.70;99.90;;;;;;5029160;28;20226;-49
2022/08/23 03:28:57;;;;;;;4.33;3.87;;;15.50;99.90;;;;;;5030009;28;20207;-50
2022/08/23 03:31:24;;;;;;;3.77;3.47;;;15.30;99.90;;;;;;5030885;28;20534;-48
2022/08/23 03:33:51;;;;;;;4.77;3.57;;;15.20;99.90;;;;;;5030524;28;20455;-50
2022/08/23 03:36:18;;;;;;;3.50;3.20;;;15.50;99.90;;;;;;5030564;28;20438;-48
2022/08/23 03:38:45;;;;;;;3.53;3.23;;;15.60;99.90;;;;;;5029913;28;20453;-55
2022/08/23 03:41:14;;;;;;;6.20;3.73;;;15.70;99.90;;;;;;5030598;28;20451;-50
2022/08/23 03:43:41;;;;;;;3.58;3.28;;;15.80;99.90;;;;;;5030547;28;20481;-49
2022/08/23 03:46:08;;;;;;;5.37;3.27;;;15.90;99.90;;;;;;5030657;28;20209;-49
2022/08/23 03:48:36;;;;;;;3.57;3.27;;;15.80;99.90;;;;;;5030313;28;20830;-51
2022/08/23 03:51:03;;;;;;;3.40;3.10;;;15.60;99.90;;;;;;5030318;28;20446;-49
2022/08/23 03:53:30;;;;;;;3.60;3.30;;;15.40;99.90;;;;;;5030317;28;20470;-50
2022/08/23 03:55:57;;;;;;;3.47;3.17;;;15.50;99.90;;;;;;5030503;28;20442;-49
2022/08/23 03:58:28;;;;;;;3.87;3.07;;;15.70;99.90;;;;;;5030178;28;20427;-49
2022/08/23 04:00:56;;;;;;;4.35;3.70;;;15.80;99.90;;;;;;5029531;28;20556;-49
2022/08/23 04:03:23;;;;;;;3.97;3.30;;;15.50;99.90;;;;;;5029853;28;20277;-49
2022/08/23 04:05:50;;;;;;;4.60;3.93;;;15.40;99.90;;;;;;5030121;28;20525;-50
2022/08/23 04:08:17;;;;;;;4.07;3.77;;;15.40;99.90;;;;;;5029648;28;20475;-49
2022/08/23 04:10:44;;;;;;;6.10;3.90;;;15.30;99.90;;;;;;5029513;28;20457;-48
2022/08/23 04:13:11;;;;;;;4.03;3.33;;;15.30;99.90;;;;;;5029846;28;20438;-49
2022/08/23 04:15:40;;;;;;;4.17;3.77;;;15.40;99.90;;;;;;5031080;28;20983;-49
2022/08/23 04:18:07;;;;;;;4.32;4.03;;;15.30;99.90;;;;;;5030069;28;20442;-48
2022/08/23 04:20:34;;;;;;;3.90;3.50;;;15.10;99.90;;;;;;5029274;28;20192;-49
2022/08/23 04:23:01;;;;;;;4.50;4.10;;;15.30;99.90;;;;;;5029742;28;20691;-49
2022/08/23 04:25:30;;;;;;;3.93;3.37;;;15.20;99.90;;;;;;5029746;28;20474;-51
2022/08/23 04:27:57;;;;;;;4.90;3.97;;;15.20;99.90;;;;;;5028179;28;20462;-48
2022/08/23 04:30:24;;;;;;;4.80;3.33;;;15.20;99.90;;;;;;5028999;28;20802;-49
2022/08/23 04:32:53;;;;;;;5.35;3.88;;;15.40;99.90;;;;;;5029862;28;20452;-48
2022/08/23 04:35:20;;;;;;;5.30;3.93;;;15.60;99.90;;;;;;5029921;28;20206;-49
2022/08/23 04:37:47;;;;;;;4.73;3.40;;;15.80;99.90;;;;;;5029720;28;20460;-50
2022/08/23 04:42:58;;;;;;;3.70;3.40;;;15.70;99.90;;;;;;5033657;28;20428;-49
2022/08/23 04:45:26;;;;;;;4.10;3.47;;;15.60;99.90;;;;;;5033697;28;20551;-50
2022/08/23 04:47:55;;;;;;;7.23;3.40;;;15.60;99.90;;;;;;5033862;28;20964;-51
2022/08/23 04:50:22;;;;;;;3.63;3.27;;;15.70;99.90;;;;;;5033101;28;21003;-48
2022/08/23 04:52:49;;;;;;;3.83;3.43;;;15.70;99.90;;;;;;5033570;28;20450;-48
2022/08/23 04:55:16;;;;;;;3.30;3.07;;;15.70;99.90;;;;;;5033757;28;20816;-49
2022/08/23 04:57:43;;;;;;;3.67;3.37;;;15.60;99.90;;;;;;5033668;28;20480;-49
2022/08/23 05:00:13;;;;;;;5.00;3.80;;;15.50;99.90;;;;;;5033102;28;20517;-49
2022/08/23 05:02:40;;;;;;;3.77;3.37;;;15.50;99.90;;;;;;5032965;28;20446;-51
2022/08/23 05:05:10;;;;;;;3.97;3.67;;;15.40;99.90;;;;;;5033268;28;20485;-49
2022/08/23 05:07:38;;;;;;;4.57;3.80;;;15.60;99.90;;;;;;5033053;28;20545;-49
2022/08/23 05:10:06;;;;;;;3.77;3.47;;;15.60;99.90;;;;;;5032893;28;20426;-49
2022/08/23 05:12:33;;;;;;;4.83;3.83;;;15.50;99.90;;;;;;5033293;28;20471;-48
2022/08/23 05:15:00;;;;;;;5.17;4.67;;;15.50;99.90;;;;;;5033156;28;20504;-49
2022/08/23 05:17:27;;;;;;;4.50;4.00;;;15.60;99.90;;;;;;5033379;28;20458;-49
2022/08/23 05:19:54;;;;;;;4.43;4.03;;;15.60;99.90;;;;;;5032465;28;20454;-49
2022/08/23 05:22:23;;;;;;;5.07;4.57;;;15.80;99.90;;;;;;5033319;28;20446;-50
2022/08/23 05:24:50;;;;;;;5.35;4.85;;;15.60;99.90;;;;;;5032892;28;20893;-48
2022/08/23 05:27:17;;;;;;;5.13;4.37;;;15.20;99.90;;;;;;5031527;28;20204;-49
2022/08/23 05:29:46;;;;;;;5.27;4.77;;;15.00;99.90;;;;;;5032422;28;20450;-49
2022/08/23 05:32:13;;;;;;;5.13;4.60;;;15.00;99.90;;;;;;5032999;28;21291;-49
2022/08/23 05:34:40;;;;;;;5.13;4.63;;;14.90;99.90;;;;;;5032926;28;20466;-49
2022/08/23 05:37:07;;;;;;;5.30;4.80;;;14.90;99.90;;;;;;5032885;28;20438;-49
2022/08/23 05:39:36;;;;;;;5.67;4.60;;;15.00;99.90;;;;;;5032700;28;20530;-49
2022/08/23 05:42:03;;;;;;;4.30;3.90;;;14.90;99.90;;;;;;5032860;28;20455;-49
2022/08/23 05:44:30;;;;;;;4.40;3.97;;;15.10;99.90;;;;;;5033163;28;20978;-49
2022/08/23 05:46:57;;;;;;;5.37;4.80;;;15.20;99.90;;;;;;5032722;28;20509;-49
2022/08/23 05:49:24;;;;;;;5.47;4.80;;;15.40;99.90;;;;;;5031979;28;20489;-49
2022/08/23 05:51:51;;;;;;;4.40;4.00;;;15.40;99.90;;;;;;5032591;28;20829;-48
2022/08/23 05:54:19;;;;;;;5.20;4.70;;;15.30;99.90;;;;;;5032625;28;20470;-48
2022/08/23 05:56:47;;;;;;;6.20;5.00;;;15.30;99.90;;;;;;5032450;28;20438;-49
2022/08/23 05:59:18;;;;;;;4.87;4.47;;;15.20;99.90;;;;;;5031668;28;20449;-49
2022/08/23 06:01:45;;;;;;;5.00;4.60;;;15.20;99.90;;;;;;5032307;28;20493;-49
2022/08/23 06:04:12;;;;;;;5.73;4.50;;;15.30;99.90;;;;;;5031822;28;20536;-49
2022/08/23 06:06:42;;;;;;;5.40;4.90;;;15.30;99.90;;;;;;5032310;28;20817;-49
2022/08/23 06:09:12;;;;;;;9.07;5.70;;;15.50;99.90;;;;;;5030996;28;21267;-49
2022/08/23 06:11:39;;;;;;;6.43;5.13;;;15.50;99.90;;;;;;5032229;28;20435;-49
2022/08/23 06:14:08;;;;;;;4.47;4.07;;;15.50;99.90;;;;;;5032120;28;20458;-49
2022/08/23 06:16:37;;;;;;;4.93;4.40;;;15.30;99.90;;;;;;5032090;28;20522;-49
2022/08/23 06:19:06;;;;;;;5.00;4.40;;;15.10;99.90;;;;;;5031320;28;20461;-49
2022/08/23 06:21:34;;;;;;;5.13;4.63;;;15.00;99.90;;;;;;5032060;28;20450;-50
2022/08/23 06:24:01;;;;;;;6.83;5.23;;;15.10;99.90;;;;;;5031946;28;20478;-49
2022/08/23 06:26:31;;;;;;;6.05;5.55;;;15.30;99.90;;;;;;5030384;28;20509;-49
2022/08/23 06:29:01;;;;;;;5.10;4.70;;;15.20;99.90;;;;;;5031374;28;20199;-48
2022/08/23 06:31:46;;;;;;;5.30;4.80;;;15.40;99.90;;;;;;5031906;28;20503;-49
2022/08/23 06:34:17;;;;;;;5.40;4.90;;;15.60;99.90;;;;;;5031629;28;20468;-49
2022/08/23 06:36:45;;;;;;;5.07;4.57;;;15.70;99.90;;;;;;5031752;28;20461;-49
2022/08/23 06:39:13;;;;;;;7.13;5.23;;;15.80;99.90;;;;;;5030979;28;21142;-49
2022/08/23 06:41:40;;;;;;;5.03;4.60;;;15.80;99.90;;;;;;5031593;28;20446;-49
2022/08/23 06:44:08;;;;;;;5.30;4.80;;;15.70;99.90;;;;;;5031668;28;20234;-49
2022/08/23 06:46:37;;;;;;;7.20;4.03;;;15.70;99.90;;;;;;5031413;28;20430;-49
2022/08/23 06:49:05;;;;;;;4.50;4.10;;;15.80;99.90;;;;;;5030817;28;20460;-50
2022/08/23 06:51:34;;;;;;;5.85;5.00;;;16.00;99.90;;;;;;5031410;28;20527;-49
2022/08/23 06:54:05;;;;;;;5.10;4.47;;;16.00;99.90;;;;;;5031288;28;20633;-49
2022/08/23 06:56:32;;;;;;;4.93;3.80;;;15.90;99.90;;;;;;5031363;28;20438;-49
2022/08/23 06:59:02;;;;;;;4.10;3.70;;;16.00;99.90;;;;;;5030657;28;21494;-50
2022/08/23 07:01:34;;;;;;;4.17;3.77;;;16.00;99.90;;;;;;5031425;28;20745;-49
2022/08/23 07:04:04;;;;;;;4.50;4.10;;;16.10;99.90;;;;;;5029829;28;20528;-48
2022/08/23 07:06:33;;;;;;;6.90;4.47;;;16.20;99.90;;;;;;5030841;28;20473;-49
2022/08/23 07:09:00;;;;;;;6.40;5.07;;;15.90;99.90;;;;;;5029631;28;20568;-49
2022/08/23 07:11:30;;;;;;;5.97;4.60;;;16.10;99.90;;;;;;5031029;28;20430;-49
2022/08/23 07:13:57;;;;;;;5.10;4.50;;;16.10;99.90;;;;;;5030948;28;20486;-50
2022/08/23 07:16:24;;;;;;;8.30;4.70;;;16.10;99.90;;;;;;5031323;28;20431;-49
2022/08/23 07:18:54;;;;;;;4.87;4.37;;;16.10;99.90;;;;;;5030507;28;20439;-48
2022/08/23 07:21:22;;;;;;;4.60;4.10;;;16.10;99.90;;;;;;5030964;28;20446;-49
2022/08/23 07:23:49;;;;;;;4.20;3.80;;;16.20;99.90;;;;;;5030921;28;20486;-49
2022/08/23 07:26:17;;;;;;;5.43;4.60;;;16.20;99.90;;;;;;5028963;28;20548;-48
2022/08/23 07:28:45;;;;;;;8.23;3.80;;;16.40;99.90;;;;;;5030514;28;20442;-49
2022/08/23 07:31:15;;;;;;;3.90;2.80;;;16.40;99.90;;;;;;5030555;28;20474;-49
2022/08/23 07:33:43;;;;;;;4.80;2.87;;;16.40;99.90;;;;;;5030600;28;20462;-49
2022/08/23 07:36:13;;;;;;;9.33;3.93;;;16.50;99.90;;;;;;5030489;28;20510;-49
2022/08/23 07:38:41;;;;;;;2.90;2.60;;;16.70;99.90;;;;;;5030213;28;20454;-47
2022/08/23 07:41:08;;;;;;;10.70;5.97;;;16.80;99.90;;;;;;5030372;28;20451;-49
2022/08/23 07:43:36;;;;;;;7.30;3.53;;;16.90;99.90;;;;;;5030520;28;20630;-49
2022/08/23 07:46:03;;;;;;;6.80;4.00;;;17.00;99.90;;;;;;5030544;28;20481;-49
2022/08/23 07:48:30;;;;;;;4.00;3.00;;;17.00;99.90;;;;;;5030339;28;20982;-50
2022/08/23 07:51:00;;;;;;;9.10;4.97;;;17.10;99.90;;;;;;5030106;28;20462;-49
2022/08/23 07:53:27;;;;;;;8.73;3.63;;;17.20;99.90;;;;;;5029892;28;20836;-49
2022/08/23 07:55:56;;;;;;;3.30;2.70;;;17.00;99.90;;;;;;5030451;28;20442;-50
2022/08/23 07:58:25;;;;;;;6.33;3.67;;;16.80;99.90;;;;;;5030130;28;20812;-49
2022/08/23 08:00:52;;;;;;;4.55;3.53;;;17.00;99.90;;;;;;5029463;28;20427;-49
2022/08/23 08:03:20;;;;;;;4.63;3.00;;;17.00;99.90;;;;;;5030014;28;20320;-49
2022/08/23 08:05:47;;;;;;;3.47;3.17;;;17.00;99.90;;;;;;5030080;28;20974;-48
2022/08/23 08:08:14;;;;;;;3.20;3.00;;;17.10;99.90;;;;;;5029610;28;20215;-49
2022/08/23 08:10:43;;;;;;;3.70;2.83;;;17.40;99.90;;;;;;5029405;28;20441;-49
2022/08/23 08:13:11;;;;;;;2.87;2.67;;;17.40;99.90;;;;;;5030137;28;20450;-49
2022/08/23 08:15:42;;;;;;;4.37;3.17;;;17.40;99.90;;;;;;5029297;28;20513;-49
2022/08/23 08:18:09;;;;;;;3.43;3.13;;;17.30;99.90;;;;;;5029923;28;20434;-48
2022/08/23 08:20:36;;;;;;;4.00;3.60;;;17.30;99.90;;;;;;5029468;28;20485;-50
2022/08/23 08:23:05;;;;;;;10.27;4.30;;;17.50;99.90;;;;;;5030127;28;20524;-50
2022/08/23 08:25:34;;;;;;;4.43;3.17;;;17.60;99.90;;;;;;5029821;28;20975;-50
2022/08/23 08:28:01;;;;;;;5.23;3.13;;;17.60;99.90;;;;;;5028230;28;20435;-48
2022/08/23 08:30:29;;;;;;;4.63;3.70;;;17.80;99.90;;;;;;5029207;28;20430;-48
2022/08/23 08:32:56;;;;;;;5.70;4.60;;;18.00;99.90;;;;;;5029784;28;20469;-50
2022/08/23 08:35:23;;;;;;;4.10;3.70;;;18.00;99.90;;;;;;5030072;28;20452;-49
2022/08/23 08:37:50;;;;;;;5.13;3.27;;;18.10;99.90;;;;;;5029783;28;20496;-49
2022/08/23 08:40:24;;;;;;;4.70;3.40;;;18.20;99.90;;;;;;5028934;28;20434;-51
2022/08/23 08:43:07;;;;;;;5.80;5.20;;;18.40;99.90;;;;;;5029809;28;20442;-51
2022/08/23 08:45:49;;;;;;;3.50;3.20;;;18.40;99.90;;;;;;5029749;28;20466;-49
2022/08/23 08:48:22;;;;;;;4.23;3.43;;;18.40;99.90;;;;;;5029796;28;20435;-49
2022/08/23 08:50:53;;;;;;;5.33;4.83;;;18.50;99.90;;;;;;5028931;28;20464;-49
2022/08/23 08:53:25;;;;;;;3.77;3.37;;;18.60;99.90;;;;;;5029455;28;20443;-48
2022/08/23 08:55:57;;;;;;;3.27;2.90;;;18.60;99.90;;;;;;5029690;28;20450;-50
2022/08/23 08:58:30;;;;;;;3.53;3.03;;;18.70;99.90;;;;;;5029670;28;20477;-49
2022/08/23 09:00:59;;;;;;;3.60;3.30;;;18.80;99.90;;;;;;5029357;28;20525;-49
2022/08/23 09:03:31;;;;;;;3.57;3.27;;;18.90;99.90;;;;;;5028922;28;20487;-49
2022/08/23 09:06:10;;;;;;;7.30;4.60;;;19.20;99.90;;;;;;5029808;28;20473;-48
2022/08/23 09:08:53;;;;;;;6.53;3.37;;;19.30;99.90;;;;;;5029396;28;20435;-50
2022/08/23 09:11:32;;;;;;;7.03;3.20;;;19.10;99.90;;;;;;5029542;28;20477;-48
2022/08/23 09:14:26;;;;;;;4.00;3.23;;;19.30;99.90;;;;;;5029353;28;20470;-49
2022/08/23 09:17:02;;;;;;;2.90;2.70;;;19.40;99.90;;;;;;5029597;28;20493;-51
2022/08/23 09:19:33;;;;;;;7.00;3.10;;;19.20;99.90;;;;;;5028915;28;20450;-49
2022/08/23 09:22:03;;;;;;;5.23;3.23;;;19.40;99.90;;;;;;5029081;28;20460;-49
2022/08/23 09:24:30;;;;;;;3.97;3.57;;;19.50;99.90;;;;;;5029200;28;20509;-50
2022/08/23 09:26:57;;;;;;;7.88;3.55;;;19.50;99.90;;;;;;5029600;28;21016;-48
2022/08/23 09:29:26;;;;;;;3.43;2.90;;;19.60;99.90;;;;;;5032471;28;20202;-49
2022/08/23 09:31:57;;;;;;;8.10;2.90;;;19.60;99.90;;;;;;5033026;28;20652;-50
2022/08/23 09:34:40;;;;;;;6.30;3.90;;;19.50;99.90;;;;;;5032775;28;20461;-49
2022/08/23 09:37:16;;;;;;;9.70;4.30;;;19.70;99.90;;;;;;5032921;28;20948;-49
2022/08/23 09:39:46;;;;;;;6.27;3.50;;;19.70;99.90;;;;;;5032354;28;20540;-50
2022/08/23 09:42:31;;;;;;;3.67;3.30;;;20.10;99.90;;;;;;5032676;28;20484;-49
2022/08/23 09:44:59;;;;;;;5.33;3.40;;;19.90;99.90;;;;;;5032923;28;20498;-49
2022/08/23 09:47:34;;;;;;;6.03;3.17;;;19.80;99.90;;;;;;5032799;28;20478;-49
2022/08/23 09:50:09;;;;;;;3.47;2.90;;;19.70;99.90;;;;;;5031961;28;20434;-49
2022/08/23 09:52:38;;;;;;;4.32;3.92;;;20.00;99.90;;;;;;5032821;28;20457;-49
2022/08/23 09:55:10;;;;;;;3.93;3.63;;;20.40;99.90;;;;;;5032348;28;20688;-49
2022/08/23 09:57:38;;;;;;;5.73;3.83;;;20.40;99.90;;;;;;5032718;28;20449;-49
2022/08/23 10:00:23;;;;;;;4.10;3.43;;;20.10;99.90;;;;;;5031958;28;20436;-49
2022/08/23 10:02:56;;;;;;;11.40;5.17;;;20.10;99.90;;;;;;5031979;28;20504;-49
2022/08/23 10:05:36;;;;;;;5.93;4.37;;;20.30;99.90;;;;;;5032499;28;20438;-49
2022/08/23 10:08:04;;;;;;;7.28;3.65;;;20.40;99.90;;;;;;5031919;28;20431;-49
2022/08/23 10:10:36;;;;;;;6.77;3.90;;;20.70;99.90;;;;;;5031653;28;20199;-50
2022/08/23 10:13:05;;;;;;;3.97;3.58;;;20.70;99.90;;;;;;5032124;28;20450;-51
2022/08/23 10:15:52;;;;;;;3.70;3.40;;;20.80;99.90;;;;;;5071449;22;20623;-50
2022/08/23 10:18:32;;;;;;;3.60;3.30;;;20.90;99.90;;;;;;5052200;28;20449;-49
2022/08/23 10:21:04;;;;;;;4.10;3.67;;;20.90;99.90;;;;;;5051481;28;20745;-50
2022/08/23 10:23:47;;;;;;;5.77;2.80;;;21.10;99.90;;;;;;5052067;28;20500;-52
2022/08/23 10:26:21;;;;;;;4.23;3.93;;;21.00;99.90;;;;;;5030334;28;20508;-49
2022/08/23 10:31:50;;;;;;;5.82;3.40;;;21.10;99.90;;;;;;5031857;28;20829;-50
2022/08/23 10:34:31;;;;;;;5.67;3.40;;;21.20;99.90;;;;;;5031800;28;20654;-49
2022/08/23 10:37:13;;;;;;;3.23;2.83;;;21.30;99.90;;;;;;5031818;28;20446;-48
2022/08/23 10:39:46;;;;;;;3.83;3.47;;;21.60;99.90;;;;;;5030100;28;20983;-49
2022/08/23 10:42:26;;;;;;;3.20;2.90;;;21.70;99.90;;;;;;5031621;28;20794;-49
2022/08/23 10:45:02;;;;;;;5.10;3.70;;;21.90;99.90;;;;;;5031789;28;20450;-49
2022/08/23 10:47:36;;;;;;;4.20;3.20;;;21.70;99.90;;;;;;5031354;28;20607;-47
2022/08/23 10:50:08;;;;;;;7.03;3.13;;;21.80;99.90;;;;;;5030689;28;20862;-48
2022/08/23 10:52:40;;;;;;;4.00;2.83;;;22.30;99.90;;;;;;5031506;28;20738;-49
2022/08/23 10:55:23;;;;;;;3.80;2.90;;;22.50;99.90;;;;;;5031356;28;20481;-48
2022/08/23 10:57:53;;;;;;;3.20;2.47;;;22.30;99.90;;;;;;5031701;28;20872;-49
2022/08/23 11:00:25;;;;;;;8.33;2.60;;;22.50;99.90;;;;;;5030860;28;20195;-51
2022/08/23 11:02:57;;;;;;;3.23;2.93;;;22.40;99.90;;;;;;5030696;28;20442;-51
2022/08/23 11:05:28;;;;;;;3.60;2.63;;;22.80;99.90;;;;;;5031285;28;20478;-50
2022/08/23 11:07:59;;;;;;;2.83;2.43;;;22.60;99.90;;;;;;5030550;28;20478;-48
2022/08/23 11:10:33;;;;;;;3.20;2.85;;;22.60;98.80;;;;;;5030510;28;20485;-50
2022/08/23 11:13:04;;;;;;;4.25;3.20;;;22.80;99.90;;;;;;5031482;28;20546;-49
2022/08/23 11:15:41;;;;;;;5.20;3.13;;;22.60;98.90;;;;;;5030990;28;20267;-49
2022/08/23 11:18:10;;;;;;;3.40;2.63;;;22.70;99.90;;;;;;5031080;28;20426;-49
2022/08/23 11:21:32;;;;;;;3.13;2.70;;;22.60;99.90;;;;;;5030683;28;20207;-49
2022/08/23 11:24:32;;;;;;;4.53;2.57;;;22.80;99.90;;;;;;4950105;29;20989;-49
2022/08/23 11:27:05;;;;;;;5.43;3.07;;;23.00;98.80;;;;;;5029842;28;20474;-48
2022/08/23 11:29:35;;;;;;;5.00;2.93;;;22.80;98.80;;;;;;5030232;28;20458;-49
2022/08/23 11:32:20;;;;;;;2.90;2.70;;;22.80;99.90;;;;;;5030973;28;20445;-49
2022/08/23 11:34:55;;;;;;;4.23;2.87;;;23.00;99.90;;;;;;5027632;28;20775;-49
2022/08/23 11:37:48;;;;;;;3.87;3.10;;;23.50;99.90;;;;;;5030688;28;20445;-50
2022/08/23 11:40:35;;;;;;;2.77;2.30;;;23.10;98.80;;;;;;5029954;28;20443;-49
2022/08/23 11:43:06;;;;;;;4.00;2.60;;;23.50;98.80;;;;;;5030658;28;20973;-48
2022/08/23 11:45:45;;;;;;;2.30;2.10;;;23.70;98.90;;;;;;5030928;28;20570;-50
2022/08/23 11:48:17;;;;;;;2.60;2.40;;;23.80;96.00;;;;;;5030495;28;20516;-49
2022/08/23 11:51:06;;;;;;;2.88;2.45;;;23.70;99.00;;;;;;5029683;28;20939;-49
2022/08/23 11:54:00;;;;;;;2.87;2.40;;;23.60;98.00;;;;;;5030345;28;20608;-49
2022/08/23 11:56:46;;;;;;;2.85;2.38;;;23.30;99.50;;;;;;5030374;28;20454;-50
2022/08/23 11:59:28;;;;;;;2.80;1.63;;;23.40;99.90;;;;;;5029800;28;20200;-50
2022/08/23 12:01:56;;;;;;;2.40;2.20;;;23.60;98.60;;;;;;5030403;28;20466;-50
2022/08/23 12:04:36;;;;;;;2.20;2.00;;;23.80;95.40;;;;;;5029575;28;20266;-49
2022/08/23 12:07:11;;;;;;;3.03;1.80;;;23.40;93.30;;;;;;5030238;28;20223;-50
2022/08/23 12:09:56;;;;;;;4.80;1.92;;;23.20;96.70;;;;;;5029074;28;20760;-49
2022/08/23 12:12:30;;;;;;;3.80;2.17;;;23.30;99.30;;;;;;5030515;28;20203;-50
2022/08/23 12:14:59;;;;;;;2.10;1.50;;;23.50;94.50;;;;;;5030305;28;20227;-49
2022/08/23 12:17:55;;;;;;;1.80;1.30;;;23.70;88.80;;;;;;5029904;28;21009;-49
2022/08/23 12:20:29;;;;;;;1.50;1.20;;;24.00;91.70;;;;;;5029419;28;20729;-49
2022/08/23 12:23:05;;;;;;;3.77;1.67;;;24.10;92.20;;;;;;5029995;28;20485;-49
2022/08/23 12:25:35;;;;;;;2.80;1.23;;;24.00;92.60;;;;;;5029860;28;20995;-50
2022/08/23 12:28:10;;;;;;;2.13;1.50;;;24.10;91.20;;;;;;5028779;28;21097;-50
2022/08/23 12:30:49;;;;;;;1.50;1.20;;;23.90;88.10;;;;;;5029235;28;20437;-50
2022/08/23 12:33:27;;;;;;;2.60;1.27;;;24.00;82.20;;;;;;5029921;28;20465;-49
2022/08/23 12:36:01;;;;;;;1.50;1.10;;;23.80;88.80;;;;;;5030012;28;20473;-49
2022/08/23 12:38:39;;;;;;;2.17;1.10;;;24.10;87.90;;;;;;5029992;28;20507;-50
2022/08/23 12:41:21;;;;;;;1.60;1.10;;;24.30;85.00;;;;;;5029746;28;20465;-49
2022/08/23 12:44:00;;;;;;;1.90;1.10;;;24.20;75.10;;;;;;5029974;28;20905;-50
2022/08/23 12:46:37;;;;;;;3.53;1.50;;;24.00;79.70;;;;;;5029811;28;20525;-49
2022/08/23 12:49:05;;;;;;;2.03;0.87;;;24.30;74.70;;;;;;5029225;28;20446;-48
2022/08/23 12:51:38;;;;;;;1.60;1.20;;;24.00;69.80;;;;;;5029602;28;20939;-49
2022/08/23 12:54:13;;;;;;;2.20;1.40;;;23.90;78.20;;;;;;5029976;28;20489;-49
2022/08/23 12:56:46;;;;;;;2.13;0.97;;;24.00;86.60;;;;;;5029619;28;20445;-49
2022/08/23 12:59:32;;;;;;;1.80;0.95;;;24.30;76.40;;;;;;5028973;28;20458;-51
2022/08/23 13:02:00;;;;;;;1.30;0.70;;;24.50;69.20;;;;;;5031033;28;20199;-49
2022/08/23 13:04:27;;;;;;;6.90;1.40;;;24.20;74.60;;;;;;5033555;28;20524;-49
2022/08/23 13:07:04;;;;;;;2.87;1.23;;;24.30;67.10;;;;;;5033613;28;20466;-49
2022/08/23 13:09:35;;;;;;;1.83;0.80;;;24.40;66.80;;;;;;5032300;28;20434;-49
2022/08/23 13:12:05;;;;;;;1.90;0.97;;;24.30;77.70;;;;;;5033962;28;20533;-51
2022/08/23 13:14:37;;;;;;;3.23;0.90;;;24.40;80.40;;;;;;5033345;28;20490;-49
2022/08/23 13:17:18;;;;;;;1.47;1.10;;;24.50;65.60;;;;;;5033466;28;20536;-49